<?xml version="1.0" encoding="UTF-8" standalone="no" ?><gpx xmlns="http://www.topografix.com/GPX/1/1" xmlns:gpxx="http://www.garmin.com/xmlschemas/GpxExtensions/v3" xmlns:wptx1="http://www.garmin.com/xmlschemas/WaypointExtension/v1" xmlns:gpxtpx="http://www.garmin.com/xmlschemas/TrackPointExtension/v1" creator="Dakota 20" version="1.1" xmlns:xsi="http://www.w3.org/2001/XMLSchema-instance" xsi:schemaLocation="http://www.topografix.com/GPX/1/1 http://www.topografix.com/GPX/1/1/gpx.xsd http://www.garmin.com/xmlschemas/GpxExtensions/v3 http://www8.garmin.com/xmlschemas/GpxExtensionsv3.xsd http://www.garmin.com/xmlschemas/WaypointExtension/v1 http://www8.garmin.com/xmlschemas/WaypointExtensionv1.xsd http://www.garmin.com/xmlschemas/TrackPointExtension/v1 http://www.garmin.com/xmlschemas/TrackPointExtensionv1.xsd"><metadata><link href="http://www.garmin.com"><text>Garmin International</text></link><time>2014-10-22T16:43:18Z</time></metadata><trk><name>Current Track: 22 OCT 2014 10:09</name><extensions><gpxx:TrackExtension><gpxx:DisplayColor>Cyan</gpxx:DisplayColor></gpxx:TrackExtension></extensions><trkseg><trkpt lat="52.0768023748" lon="-2.3445997015"><ele>261.14</ele><time>2014-10-22T09:09:57Z</time></trkpt><trkpt lat="52.0768023748" lon="-2.3445991147"><ele>259.69</ele><time>2014-10-22T09:10:00Z</time></trkpt><trkpt lat="52.0767830126" lon="-2.3445295449"><ele>259.69</ele><time>2014-10-22T09:10:17Z</time></trkpt><trkpt lat="52.0767214894" lon="-2.3443246912"><ele>261.62</ele><time>2014-10-22T09:10:29Z</time></trkpt><trkpt lat="52.0767053962" lon="-2.3442258686"><ele>262.58</ele><time>2014-10-22T09:10:33Z</time></trkpt><trkpt lat="52.0766354911" lon="-2.3440519441"><ele>264.50</ele><time>2014-10-22T09:10:40Z</time></trkpt><trkpt lat="52.0765188988" lon="-2.3438301589"><ele>267.86</ele><time>2014-10-22T09:10:51Z</time></trkpt><trkpt lat="52.0763432980" lon="-2.3436962999"><ele>267.86</ele><time>2014-10-22T09:11:09Z</time></trkpt><trkpt lat="52.0763500035" lon="-2.3436818831"><ele>267.86</ele><time>2014-10-22T09:11:27Z</time></trkpt><trkpt lat="52.0763410348" lon="-2.3436885886"><ele>267.86</ele><time>2014-10-22T09:11:52Z</time></trkpt><trkpt lat="52.0763769932" lon="-2.3436881695"><ele>267.86</ele><time>2014-10-22T09:12:00Z</time></trkpt><trkpt lat="52.0764363371" lon="-2.3436115589"><ele>269.79</ele><time>2014-10-22T09:12:15Z</time></trkpt><trkpt lat="52.0764126163" lon="-2.3434457649"><ele>271.23</ele><time>2014-10-22T09:12:29Z</time></trkpt><trkpt lat="52.0763287973" lon="-2.3433438409"><ele>273.15</ele><time>2014-10-22T09:12:44Z</time></trkpt><trkpt lat="52.0762275439" lon="-2.3432267457"><ele>275.07</ele><time>2014-10-22T09:13:02Z</time></trkpt><trkpt lat="52.0762241073" lon="-2.3432063777"><ele>275.56</ele><time>2014-10-22T09:13:21Z</time></trkpt><trkpt lat="52.0762426313" lon="-2.3431451060"><ele>275.56</ele><time>2014-10-22T09:13:32Z</time></trkpt><trkpt lat="52.0763291325" lon="-2.3430135939"><ele>276.52</ele><time>2014-10-22T09:13:46Z</time></trkpt><trkpt lat="52.0763468184" lon="-2.3429090716"><ele>278.44</ele><time>2014-10-22T09:13:54Z</time></trkpt><trkpt lat="52.0763997082" lon="-2.3428614624"><ele>278.92</ele><time>2014-10-22T09:14:05Z</time></trkpt><trkpt lat="52.0764086768" lon="-2.3429367319"><ele>277.48</ele><time>2014-10-22T09:14:09Z</time></trkpt><trkpt lat="52.0764333196" lon="-2.3429524060"><ele>277.48</ele><time>2014-10-22T09:14:11Z</time></trkpt><trkpt lat="52.0766499918" lon="-2.3430527374"><ele>276.52</ele><time>2014-10-22T09:14:28Z</time></trkpt><trkpt lat="52.0768514089" lon="-2.3430720158"><ele>277.96</ele><time>2014-10-22T09:14:46Z</time></trkpt><trkpt lat="52.0770409238" lon="-2.3429389112"><ele>279.40</ele><time>2014-10-22T09:15:05Z</time></trkpt><trkpt lat="52.0772113279" lon="-2.3428783938"><ele>282.28</ele><time>2014-10-22T09:15:26Z</time></trkpt><trkpt lat="52.0774057042" lon="-2.3428856023"><ele>285.65</ele><time>2014-10-22T09:15:48Z</time></trkpt><trkpt lat="52.0775501244" lon="-2.3428194690"><ele>287.57</ele><time>2014-10-22T09:16:06Z</time></trkpt><trkpt lat="52.0777621027" lon="-2.3426796589"><ele>290.46</ele><time>2014-10-22T09:16:30Z</time></trkpt><trkpt lat="52.0779962093" lon="-2.3426397610"><ele>292.38</ele><time>2014-10-22T09:16:52Z</time></trkpt><trkpt lat="52.0781744923" lon="-2.3425775673"><ele>294.78</ele><time>2014-10-22T09:17:13Z</time></trkpt><trkpt lat="52.0783163141" lon="-2.3424771521"><ele>298.15</ele><time>2014-10-22T09:17:34Z</time></trkpt><trkpt lat="52.0783704612" lon="-2.3424414452"><ele>299.11</ele><time>2014-10-22T09:17:39Z</time></trkpt><trkpt lat="52.0784987882" lon="-2.3423448857"><ele>301.03</ele><time>2014-10-22T09:17:53Z</time></trkpt><trkpt lat="52.0785510913" lon="-2.3421771638"><ele>304.39</ele><time>2014-10-22T09:18:11Z</time></trkpt><trkpt lat="52.0785287954" lon="-2.3422246892"><ele>303.91</ele><time>2014-10-22T09:18:32Z</time></trkpt><trkpt lat="52.0785360876" lon="-2.3422318976"><ele>303.91</ele><time>2014-10-22T09:18:57Z</time></trkpt><trkpt lat="52.0785422064" lon="-2.3422343284"><ele>304.39</ele><time>2014-10-22T09:19:24Z</time></trkpt><trkpt lat="52.0786243491" lon="-2.3421171494"><ele>307.28</ele><time>2014-10-22T09:19:42Z</time></trkpt><trkpt lat="52.0787468925" lon="-2.3419933487"><ele>309.68</ele><time>2014-10-22T09:19:58Z</time></trkpt><trkpt lat="52.0788012911" lon="-2.3418077733"><ele>312.57</ele><time>2014-10-22T09:20:11Z</time></trkpt><trkpt lat="52.0788669214" lon="-2.3416107148"><ele>314.97</ele><time>2014-10-22T09:20:24Z</time></trkpt><trkpt lat="52.0789343119" lon="-2.3413794581"><ele>317.85</ele><time>2014-10-22T09:20:44Z</time></trkpt><trkpt lat="52.0789850224" lon="-2.3412032705"><ele>320.26</ele><time>2014-10-22T09:21:03Z</time></trkpt><trkpt lat="52.0789989363" lon="-2.3410848342"><ele>322.66</ele><time>2014-10-22T09:21:18Z</time></trkpt><trkpt lat="52.0790384151" lon="-2.3408933915"><ele>325.54</ele><time>2014-10-22T09:21:37Z</time></trkpt><trkpt lat="52.0791111700" lon="-2.3406909686"><ele>328.43</ele><time>2014-10-22T09:21:55Z</time></trkpt><trkpt lat="52.0791970845" lon="-2.3405212350"><ele>330.35</ele><time>2014-10-22T09:22:15Z</time></trkpt><trkpt lat="52.0792467892" lon="-2.3404196464"><ele>330.35</ele><time>2014-10-22T09:22:28Z</time></trkpt><trkpt lat="52.0793257467" lon="-2.3402496614"><ele>328.91</ele><time>2014-10-22T09:22:44Z</time></trkpt><trkpt lat="52.0793548319" lon="-2.3400600627"><ele>327.95</ele><time>2014-10-22T09:23:02Z</time></trkpt><trkpt lat="52.0794254076" lon="-2.3399289697"><ele>326.99</ele><time>2014-10-22T09:23:17Z</time></trkpt><trkpt lat="52.0794876851" lon="-2.3398278840"><ele>326.50</ele><time>2014-10-22T09:23:28Z</time></trkpt><trkpt lat="52.0795684867" lon="-2.3397396225"><ele>325.06</ele><time>2014-10-22T09:23:44Z</time></trkpt><trkpt lat="52.0796706621" lon="-2.3396652751"><ele>324.58</ele><time>2014-10-22T09:23:58Z</time></trkpt><trkpt lat="52.0798090473" lon="-2.3395490181"><ele>324.58</ele><time>2014-10-22T09:24:13Z</time></trkpt><trkpt lat="52.0798879210" lon="-2.3394142371"><ele>325.06</ele><time>2014-10-22T09:24:29Z</time></trkpt><trkpt lat="52.0799585804" lon="-2.3392875865"><ele>326.99</ele><time>2014-10-22T09:24:43Z</time></trkpt><trkpt lat="52.0800405554" lon="-2.3391082976"><ele>329.39</ele><time>2014-10-22T09:24:59Z</time></trkpt><trkpt lat="52.0801119693" lon="-2.3389734328"><ele>332.75</ele><time>2014-10-22T09:25:11Z</time></trkpt><trkpt lat="52.0801365282" lon="-2.3389331158"><ele>334.20</ele><time>2014-10-22T09:25:14Z</time></trkpt><trkpt lat="52.0801445749" lon="-2.3389197886"><ele>334.20</ele><time>2014-10-22T09:25:15Z</time></trkpt><trkpt lat="52.0802006498" lon="-2.3388072196"><ele>335.16</ele><time>2014-10-22T09:25:30Z</time></trkpt><trkpt lat="52.0802240353" lon="-2.3387886956"><ele>336.12</ele><time>2014-10-22T09:25:47Z</time></trkpt><trkpt lat="52.0802434813" lon="-2.3387276754"><ele>336.60</ele><time>2014-10-22T09:26:00Z</time></trkpt><trkpt lat="52.0803042501" lon="-2.3386419285"><ele>336.60</ele><time>2014-10-22T09:26:17Z</time></trkpt><trkpt lat="52.0803431422" lon="-2.3385773879"><ele>337.56</ele><time>2014-10-22T09:26:32Z</time></trkpt><trkpt lat="52.0803465787" lon="-2.3385762144"><ele>336.60</ele><time>2014-10-22T09:26:44Z</time></trkpt><trkpt lat="52.0803578943" lon="-2.3385793157"><ele>337.08</ele><time>2014-10-22T09:27:04Z</time></trkpt><trkpt lat="52.0803728979" lon="-2.3385798186"><ele>336.60</ele><time>2014-10-22T09:27:22Z</time></trkpt><trkpt lat="52.0804111194" lon="-2.3385861050"><ele>337.56</ele><time>2014-10-22T09:27:30Z</time></trkpt><trkpt lat="52.0804288052" lon="-2.3385891225"><ele>335.16</ele><time>2014-10-22T09:27:34Z</time></trkpt><trkpt lat="52.0804818626" lon="-2.3385974206"><ele>333.23</ele><time>2014-10-22T09:27:48Z</time></trkpt><trkpt lat="52.0805683639" lon="-2.3385947384"><ele>330.83</ele><time>2014-10-22T09:27:57Z</time></trkpt><trkpt lat="52.0807082579" lon="-2.3386094067"><ele>329.87</ele><time>2014-10-22T09:28:12Z</time></trkpt><trkpt lat="52.0808136184" lon="-2.3386299424"><ele>326.50</ele><time>2014-10-22T09:28:26Z</time></trkpt><trkpt lat="52.0809358265" lon="-2.3386439402"><ele>324.58</ele><time>2014-10-22T09:28:41Z</time></trkpt><trkpt lat="52.0810727030" lon="-2.3386737797"><ele>322.18</ele><time>2014-10-22T09:28:59Z</time></trkpt><trkpt lat="52.0811500680" lon="-2.3386963271"><ele>320.26</ele><time>2014-10-22T09:29:12Z</time></trkpt><trkpt lat="52.0812224038" lon="-2.3387300223"><ele>317.85</ele><time>2014-10-22T09:29:28Z</time></trkpt><trkpt lat="52.0812649839" lon="-2.3387477081"><ele>317.37</ele><time>2014-10-22T09:29:33Z</time></trkpt><trkpt lat="52.0814058837" lon="-2.3387801461"><ele>314.01</ele><time>2014-10-22T09:29:48Z</time></trkpt><trkpt lat="52.0815347973" lon="-2.3388140090"><ele>312.09</ele><time>2014-10-22T09:30:06Z</time></trkpt><trkpt lat="52.0816474501" lon="-2.3388624564"><ele>310.16</ele><time>2014-10-22T09:30:21Z</time></trkpt><trkpt lat="52.0817723405" lon="-2.3388806451"><ele>308.72</ele><time>2014-10-22T09:30:39Z</time></trkpt><trkpt lat="52.0818813890" lon="-2.3388847522"><ele>308.24</ele><time>2014-10-22T09:30:49Z</time></trkpt><trkpt lat="52.0820338558" lon="-2.3389015999"><ele>307.76</ele><time>2014-10-22T09:31:04Z</time></trkpt><trkpt lat="52.0821979735" lon="-2.3389049526"><ele>306.32</ele><time>2014-10-22T09:31:22Z</time></trkpt><trkpt lat="52.0823313296" lon="-2.3388814833"><ele>306.32</ele><time>2014-10-22T09:31:37Z</time></trkpt><trkpt lat="52.0824950282" lon="-2.3388565052"><ele>306.32</ele><time>2014-10-22T09:31:55Z</time></trkpt><trkpt lat="52.0826646779" lon="-2.3388636298"><ele>306.80</ele><time>2014-10-22T09:32:12Z</time></trkpt><trkpt lat="52.0827699546" lon="-2.3388864286"><ele>308.24</ele><time>2014-10-22T09:32:27Z</time></trkpt><trkpt lat="52.0829269476" lon="-2.3388907872"><ele>308.24</ele><time>2014-10-22T09:32:47Z</time></trkpt><trkpt lat="52.0830835216" lon="-2.3388777114"><ele>308.72</ele><time>2014-10-22T09:33:04Z</time></trkpt><trkpt lat="52.0831305441" lon="-2.3389004264"><ele>309.20</ele><time>2014-10-22T09:33:18Z</time></trkpt><trkpt lat="52.0831419434" lon="-2.3389196210"><ele>309.68</ele><time>2014-10-22T09:33:41Z</time></trkpt><trkpt lat="52.0831687655" lon="-2.3389070481"><ele>310.16</ele><time>2014-10-22T09:33:57Z</time></trkpt><trkpt lat="52.0832060650" lon="-2.3389003426"><ele>310.64</ele><time>2014-10-22T09:34:10Z</time></trkpt><trkpt lat="52.0833674166" lon="-2.3388400767"><ele>313.05</ele><time>2014-10-22T09:34:29Z</time></trkpt><trkpt lat="52.0835161954" lon="-2.3387787212"><ele>315.45</ele><time>2014-10-22T09:34:46Z</time></trkpt><trkpt lat="52.0837009326" lon="-2.3387033679"><ele>317.37</ele><time>2014-10-22T09:35:06Z</time></trkpt><trkpt lat="52.0838974882" lon="-2.3386520706"><ele>318.81</ele><time>2014-10-22T09:35:26Z</time></trkpt><trkpt lat="52.0840516314" lon="-2.3385354783"><ele>320.26</ele><time>2014-10-22T09:35:44Z</time></trkpt><trkpt lat="52.0841839816" lon="-2.3384811636"><ele>322.18</ele><time>2014-10-22T09:36:00Z</time></trkpt><trkpt lat="52.0843382087" lon="-2.3384328000"><ele>324.58</ele><time>2014-10-22T09:36:17Z</time></trkpt><trkpt lat="52.0843633544" lon="-2.3384212330"><ele>324.58</ele><time>2014-10-22T09:36:20Z</time></trkpt><trkpt lat="52.0845508575" lon="-2.3383658286"><ele>326.50</ele><time>2014-10-22T09:36:41Z</time></trkpt><trkpt lat="52.0846175775" lon="-2.3383431975"><ele>326.99</ele><time>2014-10-22T09:36:49Z</time></trkpt><trkpt lat="52.0847834554" lon="-2.3383093346"><ele>328.91</ele><time>2014-10-22T09:37:09Z</time></trkpt><trkpt lat="52.0849577989" lon="-2.3382808361"><ele>328.91</ele><time>2014-10-22T09:37:28Z</time></trkpt><trkpt lat="52.0851624850" lon="-2.3382902239"><ele>328.91</ele><time>2014-10-22T09:37:50Z</time></trkpt><trkpt lat="52.0853183046" lon="-2.3382622283"><ele>328.91</ele><time>2014-10-22T09:38:08Z</time></trkpt><trkpt lat="52.0855281875" lon="-2.3382213246"><ele>328.91</ele><time>2014-10-22T09:38:31Z</time></trkpt><trkpt lat="52.0856798999" lon="-2.3381785769"><ele>327.47</ele><time>2014-10-22T09:38:51Z</time></trkpt><trkpt lat="52.0858366415" lon="-2.3381662555"><ele>324.58</ele><time>2014-10-22T09:39:12Z</time></trkpt><trkpt lat="52.0859447680" lon="-2.3381742183"><ele>323.62</ele><time>2014-10-22T09:39:25Z</time></trkpt><trkpt lat="52.0860921219" lon="-2.3381670099"><ele>322.18</ele><time>2014-10-22T09:39:42Z</time></trkpt><trkpt lat="52.0862139948" lon="-2.3381453846"><ele>322.18</ele><time>2014-10-22T09:40:00Z</time></trkpt><trkpt lat="52.0862212032" lon="-2.3381376732"><ele>321.70</ele><time>2014-10-22T09:40:22Z</time></trkpt><trkpt lat="52.0862171799" lon="-2.3381418642"><ele>322.18</ele><time>2014-10-22T09:40:44Z</time></trkpt><trkpt lat="52.0863247197" lon="-2.3381406907"><ele>320.74</ele><time>2014-10-22T09:40:58Z</time></trkpt><trkpt lat="52.0863379631" lon="-2.3381531797"><ele>320.74</ele><time>2014-10-22T09:41:00Z</time></trkpt><trkpt lat="52.0863929484" lon="-2.3381802533"><ele>319.78</ele><time>2014-10-22T09:41:06Z</time></trkpt><trkpt lat="52.0864056051" lon="-2.3381853662"><ele>320.74</ele><time>2014-10-22T09:41:08Z</time></trkpt><trkpt lat="52.0865735784" lon="-2.3381765652"><ele>320.26</ele><time>2014-10-22T09:41:22Z</time></trkpt><trkpt lat="52.0866686292" lon="-2.3381748889"><ele>318.33</ele><time>2014-10-22T09:41:35Z</time></trkpt><trkpt lat="52.0866879076" lon="-2.3381710332"><ele>317.85</ele><time>2014-10-22T09:41:37Z</time></trkpt><trkpt lat="52.0867409650" lon="-2.3381903954"><ele>316.89</ele><time>2014-10-22T09:41:52Z</time></trkpt><trkpt lat="52.0867643505" lon="-2.3381965980"><ele>316.89</ele><time>2014-10-22T09:41:54Z</time></trkpt><trkpt lat="52.0868101157" lon="-2.3382075783"><ele>315.93</ele><time>2014-10-22T09:41:59Z</time></trkpt><trkpt lat="52.0869254507" lon="-2.3382976837"><ele>314.49</ele><time>2014-10-22T09:42:14Z</time></trkpt><trkpt lat="52.0870419592" lon="-2.3383364081"><ele>312.09</ele><time>2014-10-22T09:42:29Z</time></trkpt><trkpt lat="52.0871387701" lon="-2.3383893818"><ele>310.16</ele><time>2014-10-22T09:42:45Z</time></trkpt><trkpt lat="52.0872355811" lon="-2.3384324647"><ele>308.24</ele><time>2014-10-22T09:42:59Z</time></trkpt><trkpt lat="52.0872856211" lon="-2.3384367395"><ele>308.24</ele><time>2014-10-22T09:43:06Z</time></trkpt><trkpt lat="52.0874183066" lon="-2.3384647351"><ele>306.80</ele><time>2014-10-22T09:43:21Z</time></trkpt><trkpt lat="52.0874853618" lon="-2.3384747934"><ele>305.36</ele><time>2014-10-22T09:43:35Z</time></trkpt><trkpt lat="52.0874949172" lon="-2.3384769727"><ele>305.36</ele><time>2014-10-22T09:43:36Z</time></trkpt><trkpt lat="52.0876011997" lon="-2.3384891264"><ele>303.91</ele><time>2014-10-22T09:43:49Z</time></trkpt><trkpt lat="52.0877639763" lon="-2.3384618014"><ele>301.51</ele><time>2014-10-22T09:44:07Z</time></trkpt><trkpt lat="52.0879073907" lon="-2.3384506535"><ele>299.59</ele><time>2014-10-22T09:44:24Z</time></trkpt><trkpt lat="52.0880466979" lon="-2.3384669144"><ele>298.15</ele><time>2014-10-22T09:44:41Z</time></trkpt><trkpt lat="52.0880829077" lon="-2.3384602927"><ele>297.18</ele><time>2014-10-22T09:44:50Z</time></trkpt><trkpt lat="52.0880876016" lon="-2.3384647351"><ele>298.15</ele><time>2014-10-22T09:44:58Z</time></trkpt><trkpt lat="52.0881247334" lon="-2.3384438641"><ele>297.18</ele><time>2014-10-22T09:45:02Z</time></trkpt><trkpt lat="52.0882994123" lon="-2.3384040501"><ele>297.18</ele><time>2014-10-22T09:45:19Z</time></trkpt><trkpt lat="52.0884864964" lon="-2.3383561056"><ele>298.15</ele><time>2014-10-22T09:45:37Z</time></trkpt><trkpt lat="52.0886312518" lon="-2.3383035511"><ele>296.70</ele><time>2014-10-22T09:45:53Z</time></trkpt><trkpt lat="52.0886872429" lon="-2.3382777348"><ele>295.74</ele><time>2014-10-22T09:45:59Z</time></trkpt><trkpt lat="52.0888230298" lon="-2.3382437881"><ele>293.82</ele><time>2014-10-22T09:46:14Z</time></trkpt><trkpt lat="52.0889243670" lon="-2.3381991126"><ele>293.34</ele><time>2014-10-22T09:46:25Z</time></trkpt><trkpt lat="52.0889574755" lon="-2.3381975200"><ele>289.97</ele><time>2014-10-22T09:46:29Z</time></trkpt><trkpt lat="52.0889766701" lon="-2.3381912336"><ele>290.46</ele><time>2014-10-22T09:46:31Z</time></trkpt><trkpt lat="52.0890789293" lon="-2.3381920718"><ele>290.94</ele><time>2014-10-22T09:46:43Z</time></trkpt><trkpt lat="52.0892206673" lon="-2.3382254317"><ele>289.01</ele><time>2014-10-22T09:46:57Z</time></trkpt><trkpt lat="52.0893835276" lon="-2.3381804209"><ele>288.53</ele><time>2014-10-22T09:47:12Z</time></trkpt><trkpt lat="52.0895812567" lon="-2.3381556943"><ele>287.09</ele><time>2014-10-22T09:47:30Z</time></trkpt><trkpt lat="52.0897027943" lon="-2.3381245136"><ele>287.57</ele><time>2014-10-22T09:47:42Z</time></trkpt><trkpt lat="52.0897666644" lon="-2.3381197359"><ele>285.17</ele><time>2014-10-22T09:47:48Z</time></trkpt><trkpt lat="52.0899166167" lon="-2.3381664231"><ele>285.65</ele><time>2014-10-22T09:48:02Z</time></trkpt><trkpt lat="52.0900928881" lon="-2.3382214084"><ele>282.28</ele><time>2014-10-22T09:48:19Z</time></trkpt><trkpt lat="52.0902668964" lon="-2.3383385036"><ele>280.84</ele><time>2014-10-22T09:48:37Z</time></trkpt><trkpt lat="52.0904156752" lon="-2.3384441156"><ele>278.92</ele><time>2014-10-22T09:48:56Z</time></trkpt><trkpt lat="52.0905596763" lon="-2.3385198880"><ele>276.52</ele><time>2014-10-22T09:49:13Z</time></trkpt><trkpt lat="52.0906145778" lon="-2.3385418486"><ele>275.56</ele><time>2014-10-22T09:49:19Z</time></trkpt><trkpt lat="52.0907219499" lon="-2.3386161961"><ele>273.63</ele><time>2014-10-22T09:49:35Z</time></trkpt><trkpt lat="52.0908804517" lon="-2.3387083132"><ele>270.27</ele><time>2014-10-22T09:49:49Z</time></trkpt><trkpt lat="52.0910768397" lon="-2.3387817387"><ele>267.86</ele><time>2014-10-22T09:50:05Z</time></trkpt><trkpt lat="52.0911402907" lon="-2.3387839179"><ele>267.38</ele><time>2014-10-22T09:50:12Z</time></trkpt><trkpt lat="52.0910991356" lon="-2.3388848361"><ele>263.54</ele><time>2014-10-22T09:50:25Z</time></trkpt><trkpt lat="52.0910470001" lon="-2.3389271647"><ele>262.10</ele><time>2014-10-22T09:50:39Z</time></trkpt><trkpt lat="52.0911392849" lon="-2.3389939684"><ele>260.17</ele><time>2014-10-22T09:50:56Z</time></trkpt><trkpt lat="52.0911751594" lon="-2.3390399851"><ele>261.14</ele><time>2014-10-22T09:50:58Z</time></trkpt><trkpt lat="52.0912112016" lon="-2.3390250653"><ele>262.10</ele><time>2014-10-22T09:51:15Z</time></trkpt><trkpt lat="52.0912175719" lon="-2.3390263226"><ele>261.14</ele><time>2014-10-22T09:51:31Z</time></trkpt><trkpt lat="52.0912308153" lon="-2.3390568327"><ele>260.17</ele><time>2014-10-22T09:51:49Z</time></trkpt><trkpt lat="52.0912727248" lon="-2.3391003348"><ele>260.65</ele><time>2014-10-22T09:51:54Z</time></trkpt><trkpt lat="52.0914615691" lon="-2.3390505463"><ele>264.02</ele><time>2014-10-22T09:52:12Z</time></trkpt><trkpt lat="52.0915974397" lon="-2.3389743548"><ele>266.42</ele><time>2014-10-22T09:52:25Z</time></trkpt><trkpt lat="52.0917219110" lon="-2.3389833234"><ele>267.38</ele><time>2014-10-22T09:52:43Z</time></trkpt><trkpt lat="52.0918464661" lon="-2.3390236404"><ele>267.86</ele><time>2014-10-22T09:53:03Z</time></trkpt><trkpt lat="52.0919157844" lon="-2.3390383925"><ele>269.31</ele><time>2014-10-22T09:53:18Z</time></trkpt><trkpt lat="52.0919134375" lon="-2.3390290886"><ele>269.31</ele><time>2014-10-22T09:53:23Z</time></trkpt><trkpt lat="52.0919376612" lon="-2.3389782943"><ele>269.79</ele><time>2014-10-22T09:53:37Z</time></trkpt><trkpt lat="52.0920377411" lon="-2.3389130831"><ele>272.67</ele><time>2014-10-22T09:53:54Z</time></trkpt><trkpt lat="52.0922125876" lon="-2.3388005141"><ele>275.56</ele><time>2014-10-22T09:54:13Z</time></trkpt><trkpt lat="52.0923109911" lon="-2.3388467822"><ele>275.56</ele><time>2014-10-22T09:54:31Z</time></trkpt><trkpt lat="52.0924363006" lon="-2.3388342094"><ele>278.92</ele><time>2014-10-22T09:54:46Z</time></trkpt><trkpt lat="52.0926076267" lon="-2.3388056271"><ele>282.28</ele><time>2014-10-22T09:55:06Z</time></trkpt><trkpt lat="52.0927005820" lon="-2.3387155216"><ele>284.21</ele><time>2014-10-22T09:55:23Z</time></trkpt><trkpt lat="52.0927178487" lon="-2.3385897093"><ele>284.69</ele><time>2014-10-22T09:55:32Z</time></trkpt><trkpt lat="52.0927880052" lon="-2.3384373263"><ele>286.61</ele><time>2014-10-22T09:55:47Z</time></trkpt><trkpt lat="52.0928976405" lon="-2.3384929821"><ele>288.53</ele><time>2014-10-22T09:56:03Z</time></trkpt><trkpt lat="52.0929386280" lon="-2.3385220673"><ele>289.49</ele><time>2014-10-22T09:56:19Z</time></trkpt><trkpt lat="52.0929502789" lon="-2.3385194689"><ele>289.49</ele><time>2014-10-22T09:56:41Z</time></trkpt><trkpt lat="52.0929605048" lon="-2.3385319579"><ele>289.49</ele><time>2014-10-22T09:57:01Z</time></trkpt><trkpt lat="52.0930028334" lon="-2.3385451175"><ele>290.46</ele><time>2014-10-22T09:57:15Z</time></trkpt><trkpt lat="52.0931448229" lon="-2.3385427706"><ele>292.38</ele><time>2014-10-22T09:57:32Z</time></trkpt><trkpt lat="52.0932884887" lon="-2.3385378253"><ele>294.78</ele><time>2014-10-22T09:57:49Z</time></trkpt><trkpt lat="52.0934771653" lon="-2.3385469615"><ele>296.70</ele><time>2014-10-22T09:58:06Z</time></trkpt><trkpt lat="52.0936572086" lon="-2.3385595344"><ele>298.15</ele><time>2014-10-22T09:58:22Z</time></trkpt><trkpt lat="52.0936935022" lon="-2.3385647312"><ele>298.15</ele><time>2014-10-22T09:58:37Z</time></trkpt><trkpt lat="52.0936953463" lon="-2.3385711852"><ele>299.11</ele><time>2014-10-22T09:58:57Z</time></trkpt><trkpt lat="52.0937042311" lon="-2.3385742027"><ele>298.63</ele><time>2014-10-22T09:59:17Z</time></trkpt><trkpt lat="52.0936999563" lon="-2.3385911342"><ele>298.15</ele><time>2014-10-22T09:59:39Z</time></trkpt><trkpt lat="52.0937121939" lon="-2.3385899607"><ele>298.63</ele><time>2014-10-22T10:00:02Z</time></trkpt><trkpt lat="52.0937135350" lon="-2.3385887034"><ele>295.74</ele><time>2014-10-22T10:00:05Z</time></trkpt><trkpt lat="52.0937137865" lon="-2.3385871109"><ele>300.07</ele><time>2014-10-22T10:00:06Z</time></trkpt><trkpt lat="52.0937053207" lon="-2.3385894578"><ele>298.63</ele><time>2014-10-22T10:00:29Z</time></trkpt><trkpt lat="52.0936992858" lon="-2.3385849316"><ele>299.11</ele><time>2014-10-22T10:00:58Z</time></trkpt><trkpt lat="52.0936972741" lon="-2.3385852668"><ele>298.15</ele><time>2014-10-22T10:01:28Z</time></trkpt><trkpt lat="52.0936962683" lon="-2.3385751247"><ele>297.67</ele><time>2014-10-22T10:02:01Z</time></trkpt><trkpt lat="52.0936963521" lon="-2.3385665752"><ele>297.67</ele><time>2014-10-22T10:02:30Z</time></trkpt><trkpt lat="52.0936977770" lon="-2.3385625519"><ele>298.15</ele><time>2014-10-22T10:03:02Z</time></trkpt><trkpt lat="52.0936957654" lon="-2.3385566846"><ele>298.63</ele><time>2014-10-22T10:03:35Z</time></trkpt><trkpt lat="52.0936920773" lon="-2.3385509849"><ele>298.63</ele><time>2014-10-22T10:04:09Z</time></trkpt><trkpt lat="52.0936906524" lon="-2.3385586962"><ele>298.15</ele><time>2014-10-22T10:04:42Z</time></trkpt><trkpt lat="52.0936876349" lon="-2.3385581933"><ele>297.67</ele><time>2014-10-22T10:05:13Z</time></trkpt><trkpt lat="52.0936867967" lon="-2.3385536671"><ele>297.18</ele><time>2014-10-22T10:05:42Z</time></trkpt><trkpt lat="52.0936844498" lon="-2.3385487217"><ele>297.18</ele><time>2014-10-22T10:06:12Z</time></trkpt><trkpt lat="52.0936814323" lon="-2.3385488894"><ele>297.67</ele><time>2014-10-22T10:06:48Z</time></trkpt><trkpt lat="52.0936842822" lon="-2.3385426030"><ele>297.18</ele><time>2014-10-22T10:07:15Z</time></trkpt><trkpt lat="52.0936859585" lon="-2.3385441117"><ele>297.18</ele><time>2014-10-22T10:07:40Z</time></trkpt><trkpt lat="52.0936856233" lon="-2.3385448661"><ele>297.67</ele><time>2014-10-22T10:08:08Z</time></trkpt><trkpt lat="52.0936886407" lon="-2.3385461234"><ele>297.67</ele><time>2014-10-22T10:08:45Z</time></trkpt><trkpt lat="52.0936927479" lon="-2.3385600373"><ele>298.63</ele><time>2014-10-22T10:09:11Z</time></trkpt><trkpt lat="52.0936986990" lon="-2.3385732807"><ele>298.15</ele><time>2014-10-22T10:09:39Z</time></trkpt><trkpt lat="52.0936990343" lon="-2.3385743704"><ele>299.11</ele><time>2014-10-22T10:09:43Z</time></trkpt><trkpt lat="52.0937056560" lon="-2.3385819979"><ele>298.63</ele><time>2014-10-22T10:10:07Z</time></trkpt><trkpt lat="52.0937010460" lon="-2.3385803215"><ele>299.11</ele><time>2014-10-22T10:10:31Z</time></trkpt><trkpt lat="52.0937066618" lon="-2.3385628033"><ele>299.11</ele><time>2014-10-22T10:11:01Z</time></trkpt><trkpt lat="52.0937089249" lon="-2.3385681678"><ele>299.11</ele><time>2014-10-22T10:11:16Z</time></trkpt><trkpt lat="52.0937082544" lon="-2.3385674972"><ele>299.11</ele><time>2014-10-22T10:11:45Z</time></trkpt><trkpt lat="52.0937066618" lon="-2.3385536671"><ele>298.63</ele><time>2014-10-22T10:12:08Z</time></trkpt><trkpt lat="52.0938156266" lon="-2.3385426868"><ele>299.59</ele><time>2014-10-22T10:12:25Z</time></trkpt><trkpt lat="52.0939556882" lon="-2.3385567684"><ele>302.95</ele><time>2014-10-22T10:12:38Z</time></trkpt><trkpt lat="52.0940878708" lon="-2.3386453651"><ele>305.84</ele><time>2014-10-22T10:12:55Z</time></trkpt><trkpt lat="52.0941331331" lon="-2.3386291880"><ele>306.32</ele><time>2014-10-22T10:13:07Z</time></trkpt><trkpt lat="52.0942537487" lon="-2.3386371508"><ele>307.76</ele><time>2014-10-22T10:13:25Z</time></trkpt><trkpt lat="52.0944254100" lon="-2.3386103287"><ele>311.12</ele><time>2014-10-22T10:13:43Z</time></trkpt><trkpt lat="52.0945423376" lon="-2.3386095744"><ele>312.57</ele><time>2014-10-22T10:13:59Z</time></trkpt><trkpt lat="52.0946963131" lon="-2.3386372346"><ele>313.53</ele><time>2014-10-22T10:14:18Z</time></trkpt><trkpt lat="52.0948594250" lon="-2.3386101611"><ele>313.05</ele><time>2014-10-22T10:14:34Z</time></trkpt><trkpt lat="52.0950112212" lon="-2.3385951575"><ele>314.01</ele><time>2014-10-22T10:14:52Z</time></trkpt><trkpt lat="52.0952005684" lon="-2.3386006895"><ele>311.60</ele><time>2014-10-22T10:15:13Z</time></trkpt><trkpt lat="52.0953154843" lon="-2.3385674134"><ele>309.68</ele><time>2014-10-22T10:15:28Z</time></trkpt><trkpt lat="52.0953096170" lon="-2.3385237437"><ele>309.20</ele><time>2014-10-22T10:15:41Z</time></trkpt><trkpt lat="52.0953140594" lon="-2.3385179602"><ele>309.20</ele><time>2014-10-22T10:16:03Z</time></trkpt><trkpt lat="52.0953159872" lon="-2.3385405913"><ele>308.72</ele><time>2014-10-22T10:16:21Z</time></trkpt><trkpt lat="52.0953304879" lon="-2.3385379091"><ele>308.72</ele><time>2014-10-22T10:16:43Z</time></trkpt><trkpt lat="52.0953542925" lon="-2.3385362327"><ele>309.20</ele><time>2014-10-22T10:16:57Z</time></trkpt><trkpt lat="52.0953680389" lon="-2.3385529127"><ele>308.72</ele><time>2014-10-22T10:17:25Z</time></trkpt><trkpt lat="52.0955070946" lon="-2.3385460395"><ele>310.64</ele><time>2014-10-22T10:17:42Z</time></trkpt><trkpt lat="52.0956183225" lon="-2.3385247495"><ele>312.09</ele><time>2014-10-22T10:17:58Z</time></trkpt><trkpt lat="52.0956785046" lon="-2.3385353107"><ele>313.05</ele><time>2014-10-22T10:18:18Z</time></trkpt><trkpt lat="52.0958321448" lon="-2.3385775555"><ele>314.49</ele><time>2014-10-22T10:18:36Z</time></trkpt><trkpt lat="52.0959561970" lon="-2.3386084009"><ele>316.41</ele><time>2014-10-22T10:18:50Z</time></trkpt><trkpt lat="52.0960919838" lon="-2.3386331275"><ele>318.81</ele><time>2014-10-22T10:19:07Z</time></trkpt><trkpt lat="52.0962117612" lon="-2.3386320379"><ele>318.81</ele><time>2014-10-22T10:19:21Z</time></trkpt><trkpt lat="52.0963469613" lon="-2.3386064731"><ele>320.26</ele><time>2014-10-22T10:19:35Z</time></trkpt><trkpt lat="52.0965154376" lon="-2.3386314511"><ele>321.22</ele><time>2014-10-22T10:19:52Z</time></trkpt><trkpt lat="52.0966629591" lon="-2.3386459518"><ele>323.14</ele><time>2014-10-22T10:20:08Z</time></trkpt><trkpt lat="52.0966829080" lon="-2.3386439402"><ele>323.14</ele><time>2014-10-22T10:20:10Z</time></trkpt><trkpt lat="52.0968277473" lon="-2.3386492208"><ele>324.10</ele><time>2014-10-22T10:20:25Z</time></trkpt><trkpt lat="52.0968900248" lon="-2.3386498913"><ele>324.10</ele><time>2014-10-22T10:20:32Z</time></trkpt><trkpt lat="52.0969627798" lon="-2.3386516515"><ele>325.54</ele><time>2014-10-22T10:20:40Z</time></trkpt><trkpt lat="52.0970439166" lon="-2.3386487179"><ele>326.02</ele><time>2014-10-22T10:20:49Z</time></trkpt><trkpt lat="52.0971062779" lon="-2.3386441916"><ele>326.50</ele><time>2014-10-22T10:20:56Z</time></trkpt><trkpt lat="52.0971366204" lon="-2.3386449460"><ele>327.47</ele><time>2014-10-22T10:20:59Z</time></trkpt><trkpt lat="52.0972807053" lon="-2.3385734484"><ele>327.47</ele><time>2014-10-22T10:21:13Z</time></trkpt><trkpt lat="52.0973263867" lon="-2.3385577742"><ele>328.43</ele><time>2014-10-22T10:21:20Z</time></trkpt><trkpt lat="52.0974568930" lon="-2.3385853507"><ele>329.87</ele><time>2014-10-22T10:21:33Z</time></trkpt><trkpt lat="52.0975549612" lon="-2.3386370670"><ele>332.27</ele><time>2014-10-22T10:21:46Z</time></trkpt><trkpt lat="52.0976183284" lon="-2.3386872746"><ele>332.75</ele><time>2014-10-22T10:21:56Z</time></trkpt><trkpt lat="52.0976246987" lon="-2.3386945669"><ele>331.79</ele><time>2014-10-22T10:21:57Z</time></trkpt><trkpt lat="52.0977315679" lon="-2.3387457803"><ele>334.20</ele><time>2014-10-22T10:22:10Z</time></trkpt><trkpt lat="52.0977417938" lon="-2.3387467023"><ele>334.68</ele><time>2014-10-22T10:22:11Z</time></trkpt><trkpt lat="52.0978443045" lon="-2.3387433495"><ele>336.12</ele><time>2014-10-22T10:22:22Z</time></trkpt><trkpt lat="52.0979797561" lon="-2.3386767972"><ele>338.04</ele><time>2014-10-22T10:22:36Z</time></trkpt><trkpt lat="52.0981182251" lon="-2.3386605363"><ele>338.04</ele><time>2014-10-22T10:22:50Z</time></trkpt><trkpt lat="52.0982381701" lon="-2.3386654817"><ele>339.96</ele><time>2014-10-22T10:23:04Z</time></trkpt><trkpt lat="52.0983522478" lon="-2.3386422638"><ele>340.92</ele><time>2014-10-22T10:23:17Z</time></trkpt><trkpt lat="52.0984706003" lon="-2.3386184592"><ele>341.89</ele><time>2014-10-22T10:23:31Z</time></trkpt><trkpt lat="52.0985957421" lon="-2.3385961633"><ele>343.33</ele><time>2014-10-22T10:23:45Z</time></trkpt><trkpt lat="52.0987420063" lon="-2.3385989293"><ele>344.77</ele><time>2014-10-22T10:24:01Z</time></trkpt><trkpt lat="52.0988366380" lon="-2.3385791481"><ele>345.73</ele><time>2014-10-22T10:24:13Z</time></trkpt><trkpt lat="52.0988634601" lon="-2.3385770526"><ele>347.65</ele><time>2014-10-22T10:24:16Z</time></trkpt><trkpt lat="52.0989728440" lon="-2.3385846801"><ele>348.13</ele><time>2014-10-22T10:24:30Z</time></trkpt><trkpt lat="52.0989683177" lon="-2.3385818303"><ele>347.65</ele><time>2014-10-22T10:24:34Z</time></trkpt><trkpt lat="52.0990541484" lon="-2.3386195488"><ele>348.13</ele><time>2014-10-22T10:24:44Z</time></trkpt><trkpt lat="52.0991011709" lon="-2.3386570159"><ele>348.62</ele><time>2014-10-22T10:24:50Z</time></trkpt><trkpt lat="52.0991200302" lon="-2.3386690021"><ele>349.10</ele><time>2014-10-22T10:24:52Z</time></trkpt><trkpt lat="52.0991463494" lon="-2.3386912979"><ele>349.58</ele><time>2014-10-22T10:24:55Z</time></trkpt><trkpt lat="52.0992573258" lon="-2.3387649748"><ele>350.54</ele><time>2014-10-22T10:25:09Z</time></trkpt><trkpt lat="52.0993426535" lon="-2.3388172779"><ele>351.02</ele><time>2014-10-22T10:25:19Z</time></trkpt><trkpt lat="52.0993627701" lon="-2.3388284259"><ele>351.02</ele><time>2014-10-22T10:25:21Z</time></trkpt><trkpt lat="52.0994294900" lon="-2.3388679046"><ele>352.46</ele><time>2014-10-22T10:25:29Z</time></trkpt><trkpt lat="52.0994539652" lon="-2.3388856743"><ele>352.94</ele><time>2014-10-22T10:25:32Z</time></trkpt><trkpt lat="52.0995816216" lon="-2.3389550764"><ele>353.90</ele><time>2014-10-22T10:25:46Z</time></trkpt><trkpt lat="52.0997095294" lon="-2.3390425835"><ele>356.31</ele><time>2014-10-22T10:25:59Z</time></trkpt><trkpt lat="52.0997427218" lon="-2.3390593473"><ele>356.79</ele><time>2014-10-22T10:26:02Z</time></trkpt><trkpt lat="52.0998950209" lon="-2.3391235527"><ele>358.71</ele><time>2014-10-22T10:26:17Z</time></trkpt><trkpt lat="52.1000231802" lon="-2.3391469382"><ele>359.67</ele><time>2014-10-22T10:26:30Z</time></trkpt><trkpt lat="52.1000846196" lon="-2.3391564097"><ele>360.63</ele><time>2014-10-22T10:26:36Z</time></trkpt><trkpt lat="52.1002917364" lon="-2.3391611036"><ele>362.55</ele><time>2014-10-22T10:26:48Z</time></trkpt><trkpt lat="52.1003779862" lon="-2.3391839024"><ele>363.52</ele><time>2014-10-22T10:27:00Z</time></trkpt><trkpt lat="52.1003943309" lon="-2.3391725868"><ele>363.52</ele><time>2014-10-22T10:27:08Z</time></trkpt><trkpt lat="52.1004470531" lon="-2.3391721677"><ele>364.96</ele><time>2014-10-22T10:27:14Z</time></trkpt><trkpt lat="52.1004719473" lon="-2.3391507939"><ele>364.96</ele><time>2014-10-22T10:27:35Z</time></trkpt><trkpt lat="52.1004944108" lon="-2.3391481955"><ele>364.48</ele><time>2014-10-22T10:27:42Z</time></trkpt><trkpt lat="52.1005280223" lon="-2.3391276598"><ele>365.44</ele><time>2014-10-22T10:28:00Z</time></trkpt><trkpt lat="52.1006854344" lon="-2.3389849998"><ele>366.88</ele><time>2014-10-22T10:28:14Z</time></trkpt><trkpt lat="52.1007155254" lon="-2.3389495444"><ele>366.88</ele><time>2014-10-22T10:28:17Z</time></trkpt><trkpt lat="52.1007545851" lon="-2.3389001749"><ele>367.36</ele><time>2014-10-22T10:28:21Z</time></trkpt><trkpt lat="52.1008468699" lon="-2.3386677448"><ele>368.80</ele><time>2014-10-22T10:28:37Z</time></trkpt><trkpt lat="52.1009089798" lon="-2.3384781461"><ele>368.32</ele><time>2014-10-22T10:28:50Z</time></trkpt><trkpt lat="52.1009965707" lon="-2.3383245897"><ele>369.28</ele><time>2014-10-22T10:29:03Z</time></trkpt><trkpt lat="52.1011824813" lon="-2.3382755555"><ele>369.76</ele><time>2014-10-22T10:29:18Z</time></trkpt><trkpt lat="52.1013111435" lon="-2.3382517509"><ele>370.24</ele><time>2014-10-22T10:29:30Z</time></trkpt><trkpt lat="52.1014341060" lon="-2.3382562771"><ele>371.69</ele><time>2014-10-22T10:29:44Z</time></trkpt><trkpt lat="52.1014846489" lon="-2.3381871264"><ele>371.21</ele><time>2014-10-22T10:29:57Z</time></trkpt><trkpt lat="52.1014779434" lon="-2.3381872103"><ele>370.73</ele><time>2014-10-22T10:30:18Z</time></trkpt><trkpt lat="52.1014777757" lon="-2.3381897248"><ele>370.73</ele><time>2014-10-22T10:30:37Z</time></trkpt><trkpt lat="52.1014761832" lon="-2.3381950893"><ele>370.73</ele><time>2014-10-22T10:30:56Z</time></trkpt><trkpt lat="52.1014768537" lon="-2.3381996155"><ele>371.21</ele><time>2014-10-22T10:31:22Z</time></trkpt><trkpt lat="52.1014792845" lon="-2.3381948378"><ele>371.21</ele><time>2014-10-22T10:31:42Z</time></trkpt><trkpt lat="52.1014740877" lon="-2.3382135294"><ele>370.73</ele><time>2014-10-22T10:32:02Z</time></trkpt><trkpt lat="52.1013770252" lon="-2.3381787445"><ele>370.73</ele><time>2014-10-22T10:32:14Z</time></trkpt><trkpt lat="52.1013089642" lon="-2.3381717876"><ele>370.73</ele><time>2014-10-22T10:32:20Z</time></trkpt><trkpt lat="52.1011506300" lon="-2.3381635733"><ele>372.65</ele><time>2014-10-22T10:32:36Z</time></trkpt><trkpt lat="52.1010979917" lon="-2.3381718714"><ele>373.13</ele><time>2014-10-22T10:32:41Z</time></trkpt><trkpt lat="52.1009474527" lon="-2.3382043093"><ele>371.69</ele><time>2014-10-22T10:32:55Z</time></trkpt><trkpt lat="52.1008415055" lon="-2.3382528406"><ele>373.13</ele><time>2014-10-22T10:33:07Z</time></trkpt><trkpt lat="52.1007315349" lon="-2.3382877931"><ele>376.01</ele><time>2014-10-22T10:33:20Z</time></trkpt><trkpt lat="52.1006060578" lon="-2.3383222427"><ele>378.90</ele><time>2014-10-22T10:33:34Z</time></trkpt><trkpt lat="52.1005869471" lon="-2.3383210693"><ele>379.38</ele><time>2014-10-22T10:33:38Z</time></trkpt><trkpt lat="52.1005099174" lon="-2.3383198958"><ele>377.45</ele><time>2014-10-22T10:33:50Z</time></trkpt><trkpt lat="52.1005122643" lon="-2.3383171298"><ele>379.38</ele><time>2014-10-22T10:33:52Z</time></trkpt><trkpt lat="52.1005134378" lon="-2.3383186385"><ele>380.82</ele><time>2014-10-22T10:33:54Z</time></trkpt><trkpt lat="52.1005148627" lon="-2.3383190576"><ele>377.45</ele><time>2014-10-22T10:33:58Z</time></trkpt><trkpt lat="52.1005106717" lon="-2.3383189738"><ele>382.74</ele><time>2014-10-22T10:34:00Z</time></trkpt><trkpt lat="52.1005099174" lon="-2.3383208178"><ele>382.26</ele><time>2014-10-22T10:34:01Z</time></trkpt><trkpt lat="52.1005087439" lon="-2.3383267689"><ele>379.38</ele><time>2014-10-22T10:34:04Z</time></trkpt><trkpt lat="52.1005079057" lon="-2.3383286130"><ele>381.30</ele><time>2014-10-22T10:34:06Z</time></trkpt><trkpt lat="52.1005068161" lon="-2.3383234162"><ele>383.22</ele><time>2014-10-22T10:34:09Z</time></trkpt><trkpt lat="52.1005082410" lon="-2.3383279424"><ele>381.78</ele><time>2014-10-22T10:34:14Z</time></trkpt><trkpt lat="52.1005032957" lon="-2.3383257631"><ele>382.74</ele><time>2014-10-22T10:34:18Z</time></trkpt><trkpt lat="52.1004979312" lon="-2.3383300379"><ele>378.42</ele><time>2014-10-22T10:34:20Z</time></trkpt><trkpt lat="52.1004976798" lon="-2.3383306246"><ele>378.90</ele><time>2014-10-22T10:34:21Z</time></trkpt><trkpt lat="52.1004828438" lon="-2.3383712769"><ele>380.34</ele><time>2014-10-22T10:34:24Z</time></trkpt><trkpt lat="52.1004729532" lon="-2.3384008650"><ele>381.30</ele><time>2014-10-22T10:34:26Z</time></trkpt><trkpt lat="52.1004491486" lon="-2.3384456243"><ele>382.26</ele><time>2014-10-22T10:34:30Z</time></trkpt><trkpt lat="52.1003639046" lon="-2.3385393340"><ele>380.82</ele><time>2014-10-22T10:34:40Z</time></trkpt><trkpt lat="52.1003446262" lon="-2.3385481350"><ele>380.34</ele><time>2014-10-22T10:34:42Z</time></trkpt><trkpt lat="52.1002385952" lon="-2.3385764658"><ele>378.90</ele><time>2014-10-22T10:34:56Z</time></trkpt><trkpt lat="52.1002149582" lon="-2.3385527451"><ele>378.42</ele><time>2014-10-22T10:35:08Z</time></trkpt><trkpt lat="52.1001251880" lon="-2.3385685869"><ele>376.49</ele><time>2014-10-22T10:35:22Z</time></trkpt><trkpt lat="52.0999963582" lon="-2.3385773040"><ele>373.61</ele><time>2014-10-22T10:35:37Z</time></trkpt><trkpt lat="52.0999031514" lon="-2.3385958280"><ele>372.17</ele><time>2014-10-22T10:35:51Z</time></trkpt><trkpt lat="52.0998341683" lon="-2.3386413418"><ele>371.69</ele><time>2014-10-22T10:36:03Z</time></trkpt><trkpt lat="52.0997348428" lon="-2.3386247456"><ele>369.28</ele><time>2014-10-22T10:36:17Z</time></trkpt><trkpt lat="52.0996702183" lon="-2.3386245780"><ele>367.36</ele><time>2014-10-22T10:36:29Z</time></trkpt><trkpt lat="52.0995809510" lon="-2.3385632224"><ele>364.48</ele><time>2014-10-22T10:36:43Z</time></trkpt><trkpt lat="52.0995800290" lon="-2.3385621328"><ele>364.48</ele><time>2014-10-22T10:36:44Z</time></trkpt><trkpt lat="52.0994852297" lon="-2.3385105841"><ele>363.52</ele><time>2014-10-22T10:36:56Z</time></trkpt><trkpt lat="52.0994992275" lon="-2.3385039624"><ele>362.55</ele><time>2014-10-22T10:37:14Z</time></trkpt><trkpt lat="52.0994928572" lon="-2.3385060579"><ele>363.52</ele><time>2014-10-22T10:37:29Z</time></trkpt><trkpt lat="52.0994141512" lon="-2.3385432735"><ele>359.67</ele><time>2014-10-22T10:37:42Z</time></trkpt><trkpt lat="52.0993556455" lon="-2.3385493923"><ele>360.15</ele><time>2014-10-22T10:37:49Z</time></trkpt><trkpt lat="52.0993242133" lon="-2.3385576066"><ele>358.71</ele><time>2014-10-22T10:37:52Z</time></trkpt><trkpt lat="52.0992134046" lon="-2.3385452852"><ele>356.31</ele><time>2014-10-22T10:38:06Z</time></trkpt><trkpt lat="52.0992066991" lon="-2.3385457043"><ele>356.31</ele><time>2014-10-22T10:38:07Z</time></trkpt><trkpt lat="52.0991653763" lon="-2.3385178763"><ele>352.46</ele><time>2014-10-22T10:38:17Z</time></trkpt><trkpt lat="52.0991679747" lon="-2.3385182954"><ele>352.46</ele><time>2014-10-22T10:38:18Z</time></trkpt><trkpt lat="52.0991456788" lon="-2.3385387473"><ele>354.38</ele><time>2014-10-22T10:38:37Z</time></trkpt><trkpt lat="52.0991374645" lon="-2.3385428544"><ele>355.34</ele><time>2014-10-22T10:38:39Z</time></trkpt><trkpt lat="52.0990888495" lon="-2.3385555111"><ele>353.42</ele><time>2014-10-22T10:38:44Z</time></trkpt><trkpt lat="52.0989697427" lon="-2.3385599535"><ele>349.58</ele><time>2014-10-22T10:39:00Z</time></trkpt><trkpt lat="52.0989329461" lon="-2.3385771364"><ele>349.58</ele><time>2014-10-22T10:39:06Z</time></trkpt><trkpt lat="52.0989080518" lon="-2.3385983426"><ele>350.06</ele><time>2014-10-22T10:39:09Z</time></trkpt><trkpt lat="52.0987898670" lon="-2.3385752924"><ele>349.58</ele><time>2014-10-22T10:39:22Z</time></trkpt><trkpt lat="52.0987505559" lon="-2.3386117537"><ele>348.62</ele><time>2014-10-22T10:39:26Z</time></trkpt><trkpt lat="52.0986120868" lon="-2.3386198841"><ele>346.69</ele><time>2014-10-22T10:39:42Z</time></trkpt><trkpt lat="52.0985812414" lon="-2.3386266734"><ele>345.25</ele><time>2014-10-22T10:39:49Z</time></trkpt><trkpt lat="52.0985300280" lon="-2.3386254162"><ele>344.77</ele><time>2014-10-22T10:39:54Z</time></trkpt><trkpt lat="52.0985016972" lon="-2.3386253323"><ele>344.77</ele><time>2014-10-22T10:39:57Z</time></trkpt><trkpt lat="52.0984339714" lon="-2.3386451136"><ele>343.81</ele><time>2014-10-22T10:40:05Z</time></trkpt><trkpt lat="52.0983035490" lon="-2.3386618774"><ele>342.85</ele><time>2014-10-22T10:40:20Z</time></trkpt><trkpt lat="52.0981532615" lon="-2.3386827484"><ele>341.41</ele><time>2014-10-22T10:40:35Z</time></trkpt><trkpt lat="52.0980095956" lon="-2.3386797309"><ele>339.96</ele><time>2014-10-22T10:40:51Z</time></trkpt><trkpt lat="52.0979265310" lon="-2.3386968300"><ele>339.48</ele><time>2014-10-22T10:41:03Z</time></trkpt><trkpt lat="52.0977987908" lon="-2.3387319501"><ele>338.04</ele><time>2014-10-22T10:41:18Z</time></trkpt><trkpt lat="52.0977662690" lon="-2.3387408350"><ele>337.08</ele><time>2014-10-22T10:41:23Z</time></trkpt><trkpt lat="52.0977514330" lon="-2.3387318663"><ele>336.60</ele><time>2014-10-22T10:41:25Z</time></trkpt><trkpt lat="52.0976075996" lon="-2.3386999313"><ele>334.68</ele><time>2014-10-22T10:41:40Z</time></trkpt><trkpt lat="52.0975905843" lon="-2.3386933934"><ele>334.20</ele><time>2014-10-22T10:41:42Z</time></trkpt><trkpt lat="52.0974762551" lon="-2.3386091553"><ele>332.75</ele><time>2014-10-22T10:41:57Z</time></trkpt><trkpt lat="52.0973527897" lon="-2.3385693412"><ele>331.79</ele><time>2014-10-22T10:42:10Z</time></trkpt><trkpt lat="52.0972235408" lon="-2.3385970015"><ele>330.35</ele><time>2014-10-22T10:42:22Z</time></trkpt><trkpt lat="52.0970626082" lon="-2.3386446945"><ele>328.91</ele><time>2014-10-22T10:42:39Z</time></trkpt><trkpt lat="52.0968831517" lon="-2.3386588600"><ele>327.95</ele><time>2014-10-22T10:42:55Z</time></trkpt><trkpt lat="52.0967419166" lon="-2.3386743665"><ele>326.99</ele><time>2014-10-22T10:43:09Z</time></trkpt><trkpt lat="52.0965881087" lon="-2.3386755399"><ele>325.54</ele><time>2014-10-22T10:43:24Z</time></trkpt><trkpt lat="52.0965365600" lon="-2.3386710975"><ele>324.58</ele><time>2014-10-22T10:43:29Z</time></trkpt><trkpt lat="52.0965152700" lon="-2.3386589438"><ele>324.10</ele><time>2014-10-22T10:43:32Z</time></trkpt><trkpt lat="52.0963535830" lon="-2.3386367317"><ele>322.66</ele><time>2014-10-22T10:43:47Z</time></trkpt><trkpt lat="52.0961901359" lon="-2.3386542499"><ele>322.18</ele><time>2014-10-22T10:44:03Z</time></trkpt><trkpt lat="52.0960167143" lon="-2.3386520706"><ele>320.26</ele><time>2014-10-22T10:44:19Z</time></trkpt><trkpt lat="52.0958862919" lon="-2.3386379890"><ele>318.33</ele><time>2014-10-22T10:44:32Z</time></trkpt><trkpt lat="52.0957947616" lon="-2.3386018630"><ele>316.89</ele><time>2014-10-22T10:44:45Z</time></trkpt><trkpt lat="52.0956743974" lon="-2.3385727778"><ele>315.45</ele><time>2014-10-22T10:44:59Z</time></trkpt><trkpt lat="52.0955174882" lon="-2.3385689221"><ele>313.53</ele><time>2014-10-22T10:45:15Z</time></trkpt><trkpt lat="52.0954469126" lon="-2.3385870270"><ele>312.09</ele><time>2014-10-22T10:45:25Z</time></trkpt><trkpt lat="52.0954131335" lon="-2.3386110831"><ele>312.09</ele><time>2014-10-22T10:45:29Z</time></trkpt><trkpt lat="52.0952835493" lon="-2.3387025297"><ele>311.12</ele><time>2014-10-22T10:45:47Z</time></trkpt><trkpt lat="52.0951201860" lon="-2.3388282582"><ele>308.72</ele><time>2014-10-22T10:46:04Z</time></trkpt><trkpt lat="52.0949882548" lon="-2.3388905358"><ele>307.76</ele><time>2014-10-22T10:46:18Z</time></trkpt><trkpt lat="52.0949647017" lon="-2.3389005102"><ele>306.80</ele><time>2014-10-22T10:46:21Z</time></trkpt><trkpt lat="52.0948174316" lon="-2.3389813956"><ele>304.88</ele><time>2014-10-22T10:46:36Z</time></trkpt><trkpt lat="52.0947146695" lon="-2.3390200362"><ele>301.51</ele><time>2014-10-22T10:46:50Z</time></trkpt><trkpt lat="52.0946766995" lon="-2.3390419129"><ele>301.51</ele><time>2014-10-22T10:46:55Z</time></trkpt><trkpt lat="52.0945244841" lon="-2.3390760273"><ele>299.59</ele><time>2014-10-22T10:47:10Z</time></trkpt><trkpt lat="52.0943730231" lon="-2.3390876781"><ele>298.15</ele><time>2014-10-22T10:47:26Z</time></trkpt><trkpt lat="52.0942554250" lon="-2.3390892707"><ele>297.18</ele><time>2014-10-22T10:47:40Z</time></trkpt><trkpt lat="52.0940955821" lon="-2.3391252290"><ele>295.74</ele><time>2014-10-22T10:47:57Z</time></trkpt><trkpt lat="52.0940815005" lon="-2.3391310964"><ele>295.74</ele><time>2014-10-22T10:47:59Z</time></trkpt><trkpt lat="52.0940288622" lon="-2.3391415738"><ele>295.26</ele><time>2014-10-22T10:48:04Z</time></trkpt><trkpt lat="52.0939407684" lon="-2.3391517997"><ele>294.30</ele><time>2014-10-22T10:48:16Z</time></trkpt><trkpt lat="52.0939216577" lon="-2.3391519673"><ele>294.30</ele><time>2014-10-22T10:48:18Z</time></trkpt><trkpt lat="52.0938249305" lon="-2.3391832318"><ele>292.38</ele><time>2014-10-22T10:48:28Z</time></trkpt><trkpt lat="52.0937063266" lon="-2.3392005824"><ele>291.90</ele><time>2014-10-22T10:48:43Z</time></trkpt><trkpt lat="52.0935956854" lon="-2.3392051924"><ele>290.46</ele><time>2014-10-22T10:48:59Z</time></trkpt><trkpt lat="52.0934576355" lon="-2.3392061982"><ele>289.01</ele><time>2014-10-22T10:49:13Z</time></trkpt><trkpt lat="52.0933463238" lon="-2.3392022587"><ele>287.57</ele><time>2014-10-22T10:49:22Z</time></trkpt><trkpt lat="52.0931818709" lon="-2.3391616903"><ele>286.13</ele><time>2014-10-22T10:49:37Z</time></trkpt><trkpt lat="52.0930358581" lon="-2.3391410708"><ele>283.73</ele><time>2014-10-22T10:49:54Z</time></trkpt><trkpt lat="52.0929429028" lon="-2.3391228821"><ele>281.80</ele><time>2014-10-22T10:50:06Z</time></trkpt><trkpt lat="52.0928493608" lon="-2.3390805535"><ele>278.92</ele><time>2014-10-22T10:50:23Z</time></trkpt><trkpt lat="52.0926591754" lon="-2.3390490375"><ele>277.00</ele><time>2014-10-22T10:50:39Z</time></trkpt><trkpt lat="52.0925368834" lon="-2.3390337825"><ele>275.07</ele><time>2014-10-22T10:50:51Z</time></trkpt><trkpt lat="52.0923550799" lon="-2.3390362971"><ele>273.63</ele><time>2014-10-22T10:51:06Z</time></trkpt><trkpt lat="52.0923418365" lon="-2.3390403204"><ele>273.15</ele><time>2014-10-22T10:51:07Z</time></trkpt><trkpt lat="52.0922373142" lon="-2.3390502110"><ele>271.23</ele><time>2014-10-22T10:51:21Z</time></trkpt><trkpt lat="52.0920938160" lon="-2.3390837386"><ele>268.83</ele><time>2014-10-22T10:51:37Z</time></trkpt><trkpt lat="52.0920668263" lon="-2.3390805535"><ele>268.35</ele><time>2014-10-22T10:51:40Z</time></trkpt><trkpt lat="52.0920478832" lon="-2.3390350398"><ele>268.35</ele><time>2014-10-22T10:51:52Z</time></trkpt><trkpt lat="52.0920513198" lon="-2.3390467744"><ele>268.35</ele><time>2014-10-22T10:51:54Z</time></trkpt><trkpt lat="52.0918854419" lon="-2.3390569165"><ele>266.42</ele><time>2014-10-22T10:52:07Z</time></trkpt><trkpt lat="52.0918164589" lon="-2.3390346207"><ele>265.46</ele><time>2014-10-22T10:52:16Z</time></trkpt><trkpt lat="52.0916720387" lon="-2.3390046973"><ele>264.50</ele><time>2014-10-22T10:52:30Z</time></trkpt><trkpt lat="52.0916324761" lon="-2.3390050326"><ele>263.54</ele><time>2014-10-22T10:52:33Z</time></trkpt><trkpt lat="52.0914808474" lon="-2.3390588444"><ele>262.10</ele><time>2014-10-22T10:52:49Z</time></trkpt><trkpt lat="52.0913727209" lon="-2.3391179368"><ele>259.21</ele><time>2014-10-22T10:53:02Z</time></trkpt><trkpt lat="52.0912562963" lon="-2.3391239718"><ele>256.81</ele><time>2014-10-22T10:53:12Z</time></trkpt><trkpt lat="52.0912106149" lon="-2.3390295077"><ele>256.33</ele><time>2014-10-22T10:53:29Z</time></trkpt><trkpt lat="52.0912096929" lon="-2.3390288372"><ele>256.33</ele><time>2014-10-22T10:53:32Z</time></trkpt><trkpt lat="52.0911602397" lon="-2.3389852513"><ele>256.33</ele><time>2014-10-22T10:53:47Z</time></trkpt><trkpt lat="52.0911364350" lon="-2.3389708344"><ele>256.81</ele><time>2014-10-22T10:54:04Z</time></trkpt><trkpt lat="52.0911035780" lon="-2.3389230575"><ele>258.73</ele><time>2014-10-22T10:54:18Z</time></trkpt><trkpt lat="52.0911645982" lon="-2.3387958203"><ele>261.14</ele><time>2014-10-22T10:54:31Z</time></trkpt><trkpt lat="52.0911594015" lon="-2.3387780506"><ele>262.10</ele><time>2014-10-22T10:54:44Z</time></trkpt><trkpt lat="52.0911370218" lon="-2.3387762904"><ele>262.10</ele><time>2014-10-22T10:54:47Z</time></trkpt><trkpt lat="52.0910791866" lon="-2.3387621250"><ele>263.54</ele><time>2014-10-22T10:55:01Z</time></trkpt><trkpt lat="52.0910296496" lon="-2.3387415893"><ele>264.02</ele><time>2014-10-22T10:55:07Z</time></trkpt><trkpt lat="52.0909360237" lon="-2.3387128394"><ele>265.46</ele><time>2014-10-22T10:55:17Z</time></trkpt><trkpt lat="52.0908489358" lon="-2.3386791442"><ele>266.42</ele><time>2014-10-22T10:55:31Z</time></trkpt><trkpt lat="52.0907354448" lon="-2.3386179563"><ele>268.35</ele><time>2014-10-22T10:55:46Z</time></trkpt><trkpt lat="52.0906424895" lon="-2.3385603726"><ele>269.79</ele><time>2014-10-22T10:55:59Z</time></trkpt><trkpt lat="52.0905040205" lon="-2.3384794034"><ele>271.71</ele><time>2014-10-22T10:56:16Z</time></trkpt><trkpt lat="52.0904122386" lon="-2.3384315427"><ele>273.63</ele><time>2014-10-22T10:56:30Z</time></trkpt><trkpt lat="52.0903781243" lon="-2.3384203110"><ele>273.63</ele><time>2014-10-22T10:56:34Z</time></trkpt><trkpt lat="52.0903418306" lon="-2.3383825924"><ele>274.11</ele><time>2014-10-22T10:56:38Z</time></trkpt><trkpt lat="52.0902073849" lon="-2.3383019585"><ele>274.59</ele><time>2014-10-22T10:56:51Z</time></trkpt><trkpt lat="52.0901539922" lon="-2.3382630665"><ele>276.52</ele><time>2014-10-22T10:56:57Z</time></trkpt><trkpt lat="52.0901140943" lon="-2.3382533435"><ele>276.52</ele><time>2014-10-22T10:57:01Z</time></trkpt><trkpt lat="52.0900464524" lon="-2.3381968495"><ele>277.00</ele><time>2014-10-22T10:57:09Z</time></trkpt><trkpt lat="52.0899144374" lon="-2.3381657526"><ele>278.44</ele><time>2014-10-22T10:57:23Z</time></trkpt><trkpt lat="52.0898684207" lon="-2.3381614778"><ele>278.92</ele><time>2014-10-22T10:57:28Z</time></trkpt><trkpt lat="52.0897286944" lon="-2.3381126113"><ele>280.84</ele><time>2014-10-22T10:57:42Z</time></trkpt><trkpt lat="52.0896233339" lon="-2.3381187301"><ele>282.28</ele><time>2014-10-22T10:57:52Z</time></trkpt><trkpt lat="52.0895649120" lon="-2.3381306324"><ele>281.32</ele><time>2014-10-22T10:57:58Z</time></trkpt><trkpt lat="52.0894267783" lon="-2.3381587118"><ele>282.77</ele><time>2014-10-22T10:58:12Z</time></trkpt><trkpt lat="52.0893779956" lon="-2.3381691054"><ele>282.28</ele><time>2014-10-22T10:58:17Z</time></trkpt><trkpt lat="52.0892142970" lon="-2.3382177204"><ele>282.77</ele><time>2014-10-22T10:58:35Z</time></trkpt><trkpt lat="52.0891666878" lon="-2.3382206541"><ele>282.77</ele><time>2014-10-22T10:58:48Z</time></trkpt><trkpt lat="52.0890048333" lon="-2.3382292874"><ele>283.73</ele><time>2014-10-22T10:59:02Z</time></trkpt><trkpt lat="52.0889104530" lon="-2.3382359091"><ele>284.69</ele><time>2014-10-22T10:59:11Z</time></trkpt><trkpt lat="52.0888238680" lon="-2.3382747173"><ele>286.13</ele><time>2014-10-22T10:59:21Z</time></trkpt><trkpt lat="52.0887512807" lon="-2.3383081611"><ele>286.61</ele><time>2014-10-22T10:59:30Z</time></trkpt><trkpt lat="52.0886898413" lon="-2.3383322172"><ele>289.01</ele><time>2014-10-22T10:59:39Z</time></trkpt><trkpt lat="52.0886465907" lon="-2.3383318819"><ele>289.49</ele><time>2014-10-22T10:59:51Z</time></trkpt><trkpt lat="52.0886362810" lon="-2.3383434489"><ele>289.49</ele><time>2014-10-22T10:59:56Z</time></trkpt><trkpt lat="52.0885133184" lon="-2.3383812513"><ele>290.94</ele><time>2014-10-22T11:00:06Z</time></trkpt><trkpt lat="52.0883505419" lon="-2.3384346440"><ele>290.46</ele><time>2014-10-22T11:00:20Z</time></trkpt><trkpt lat="52.0882632863" lon="-2.3384426069"><ele>290.94</ele><time>2014-10-22T11:00:28Z</time></trkpt><trkpt lat="52.0881707501" lon="-2.3384830914"><ele>291.42</ele><time>2014-10-22T11:00:41Z</time></trkpt><trkpt lat="52.0881494600" lon="-2.3384908028"><ele>291.42</ele><time>2014-10-22T11:00:43Z</time></trkpt><trkpt lat="52.0880290959" lon="-2.3385184631"><ele>292.86</ele><time>2014-10-22T11:00:55Z</time></trkpt><trkpt lat="52.0879883599" lon="-2.3385507334"><ele>291.90</ele><time>2014-10-22T11:01:08Z</time></trkpt><trkpt lat="52.0878570154" lon="-2.3386145197"><ele>293.82</ele><time>2014-10-22T11:01:21Z</time></trkpt><trkpt lat="52.0878078975" lon="-2.3386426829"><ele>294.78</ele><time>2014-10-22T11:01:26Z</time></trkpt><trkpt lat="52.0876392536" lon="-2.3386599496"><ele>296.70</ele><time>2014-10-22T11:01:42Z</time></trkpt><trkpt lat="52.0875203144" lon="-2.3386722710"><ele>297.67</ele><time>2014-10-22T11:01:54Z</time></trkpt><trkpt lat="52.0874917321" lon="-2.3386719357"><ele>298.15</ele><time>2014-10-22T11:01:58Z</time></trkpt><trkpt lat="52.0873673446" lon="-2.3386671580"><ele>299.59</ele><time>2014-10-22T11:02:12Z</time></trkpt><trkpt lat="52.0872555301" lon="-2.3386406712"><ele>300.07</ele><time>2014-10-22T11:02:28Z</time></trkpt><trkpt lat="52.0872279536" lon="-2.3386362288"><ele>301.03</ele><time>2014-10-22T11:02:44Z</time></trkpt><trkpt lat="52.0872330666" lon="-2.3386443593"><ele>301.99</ele><time>2014-10-22T11:02:53Z</time></trkpt><trkpt lat="52.0871494152" lon="-2.3386422638"><ele>302.47</ele><time>2014-10-22T11:03:08Z</time></trkpt><trkpt lat="52.0871101879" lon="-2.3386453651"><ele>302.47</ele><time>2014-10-22T11:03:13Z</time></trkpt><trkpt lat="52.0869558770" lon="-2.3386166152"><ele>304.39</ele><time>2014-10-22T11:03:28Z</time></trkpt><trkpt lat="52.0868964493" lon="-2.3386084009"><ele>304.39</ele><time>2014-10-22T11:03:35Z</time></trkpt><trkpt lat="52.0868443977" lon="-2.3385968339"><ele>304.88</ele><time>2014-10-22T11:03:41Z</time></trkpt><trkpt lat="52.0868157316" lon="-2.3385875300"><ele>305.36</ele><time>2014-10-22T11:03:45Z</time></trkpt><trkpt lat="52.0866982173" lon="-2.3385244142"><ele>306.80</ele><time>2014-10-22T11:04:00Z</time></trkpt><trkpt lat="52.0866779331" lon="-2.3385126796"><ele>307.76</ele><time>2014-10-22T11:04:03Z</time></trkpt><trkpt lat="52.0866187569" lon="-2.3384740390"><ele>307.76</ele><time>2014-10-22T11:04:10Z</time></trkpt><trkpt lat="52.0865910966" lon="-2.3384622205"><ele>308.24</ele><time>2014-10-22T11:04:13Z</time></trkpt><trkpt lat="52.0864675473" lon="-2.3383700196"><ele>309.20</ele><time>2014-10-22T11:04:28Z</time></trkpt><trkpt lat="52.0864501968" lon="-2.3383529205"><ele>310.16</ele><time>2014-10-22T11:04:31Z</time></trkpt><trkpt lat="52.0862665493" lon="-2.3382563610"><ele>311.60</ele><time>2014-10-22T11:04:45Z</time></trkpt><trkpt lat="52.0860783756" lon="-2.3382157926"><ele>314.01</ele><time>2014-10-22T11:05:01Z</time></trkpt><trkpt lat="52.0860451832" lon="-2.3382080812"><ele>314.01</ele><time>2014-10-22T11:05:04Z</time></trkpt><trkpt lat="52.0859680697" lon="-2.3382526729"><ele>314.97</ele><time>2014-10-22T11:05:18Z</time></trkpt><trkpt lat="52.0859653875" lon="-2.3382605519"><ele>314.97</ele><time>2014-10-22T11:05:33Z</time></trkpt><trkpt lat="52.0859596040" lon="-2.3382759746"><ele>314.97</ele><time>2014-10-22T11:05:50Z</time></trkpt><trkpt lat="52.0859630406" lon="-2.3382798303"><ele>314.49</ele><time>2014-10-22T11:06:08Z</time></trkpt><trkpt lat="52.0859645493" lon="-2.3382773995"><ele>315.45</ele><time>2014-10-22T11:06:26Z</time></trkpt><trkpt lat="52.0859275851" lon="-2.3383118492"><ele>314.97</ele><time>2014-10-22T11:06:31Z</time></trkpt><trkpt lat="52.0859190356" lon="-2.3383250087"><ele>314.97</ele><time>2014-10-22T11:06:32Z</time></trkpt><trkpt lat="52.0857684128" lon="-2.3384552635"><ele>314.97</ele><time>2014-10-22T11:06:46Z</time></trkpt><trkpt lat="52.0856264234" lon="-2.3385594506"><ele>314.97</ele><time>2014-10-22T11:06:59Z</time></trkpt><trkpt lat="52.0854326338" lon="-2.3386747018"><ele>314.49</ele><time>2014-10-22T11:07:17Z</time></trkpt><trkpt lat="52.0852978528" lon="-2.3387508933"><ele>314.49</ele><time>2014-10-22T11:07:31Z</time></trkpt><trkpt lat="52.0851806737" lon="-2.3387768771"><ele>313.53</ele><time>2014-10-22T11:07:43Z</time></trkpt><trkpt lat="52.0849846210" lon="-2.3388032801"><ele>312.09</ele><time>2014-10-22T11:07:58Z</time></trkpt><trkpt lat="52.0849575475" lon="-2.3388033640"><ele>312.09</ele><time>2014-10-22T11:08:01Z</time></trkpt><trkpt lat="52.0849004667" lon="-2.3388020229"><ele>312.09</ele><time>2014-10-22T11:08:07Z</time></trkpt><trkpt lat="52.0848404523" lon="-2.3388082255"><ele>311.12</ele><time>2014-10-22T11:08:22Z</time></trkpt><trkpt lat="52.0848034881" lon="-2.3388026096"><ele>310.64</ele><time>2014-10-22T11:08:36Z</time></trkpt><trkpt lat="52.0847772527" lon="-2.3387884442"><ele>310.64</ele><time>2014-10-22T11:08:40Z</time></trkpt><trkpt lat="52.0847435575" lon="-2.3387933895"><ele>309.68</ele><time>2014-10-22T11:08:43Z</time></trkpt><trkpt lat="52.0845654421" lon="-2.3388108239"><ele>309.20</ele><time>2014-10-22T11:08:57Z</time></trkpt><trkpt lat="52.0844076946" lon="-2.3388362210"><ele>309.20</ele><time>2014-10-22T11:09:10Z</time></trkpt><trkpt lat="52.0843273960" lon="-2.3388490453"><ele>309.20</ele><time>2014-10-22T11:09:19Z</time></trkpt><trkpt lat="52.0842786971" lon="-2.3388539907"><ele>309.20</ele><time>2014-10-22T11:09:24Z</time></trkpt><trkpt lat="52.0841235481" lon="-2.3388613667"><ele>308.72</ele><time>2014-10-22T11:09:38Z</time></trkpt><trkpt lat="52.0839966461" lon="-2.3388478719"><ele>306.80</ele><time>2014-10-22T11:09:51Z</time></trkpt><trkpt lat="52.0839062892" lon="-2.3388613667"><ele>306.32</ele><time>2014-10-22T11:10:00Z</time></trkpt><trkpt lat="52.0838394854" lon="-2.3388647195"><ele>305.84</ele><time>2014-10-22T11:10:06Z</time></trkpt><trkpt lat="52.0837365557" lon="-2.3388825729"><ele>304.88</ele><time>2014-10-22T11:10:22Z</time></trkpt><trkpt lat="52.0837359689" lon="-2.3388792202"><ele>304.88</ele><time>2014-10-22T11:10:29Z</time></trkpt><trkpt lat="52.0837026089" lon="-2.3388710897"><ele>303.91</ele><time>2014-10-22T11:10:33Z</time></trkpt><trkpt lat="52.0836717635" lon="-2.3388673179"><ele>304.88</ele><time>2014-10-22T11:10:36Z</time></trkpt><trkpt lat="52.0835172012" lon="-2.3388858419"><ele>303.91</ele><time>2014-10-22T11:10:49Z</time></trkpt><trkpt lat="52.0833844319" lon="-2.3388928827"><ele>304.39</ele><time>2014-10-22T11:11:01Z</time></trkpt><trkpt lat="52.0832771435" lon="-2.3388751969"><ele>303.43</ele><time>2014-10-22T11:11:12Z</time></trkpt><trkpt lat="52.0832646545" lon="-2.3388734367"><ele>301.51</ele><time>2014-10-22T11:11:16Z</time></trkpt><trkpt lat="52.0832705218" lon="-2.3388798907"><ele>300.07</ele><time>2014-10-22T11:11:23Z</time></trkpt><trkpt lat="52.0832729526" lon="-2.3388803937"><ele>302.95</ele><time>2014-10-22T11:11:28Z</time></trkpt><trkpt lat="52.0832499862" lon="-2.3388876859"><ele>302.95</ele><time>2014-10-22T11:11:30Z</time></trkpt><trkpt lat="52.0830967650" lon="-2.3388825729"><ele>301.03</ele><time>2014-10-22T11:11:43Z</time></trkpt><trkpt lat="52.0829791669" lon="-2.3388728499"><ele>301.03</ele><time>2014-10-22T11:11:53Z</time></trkpt><trkpt lat="52.0828090142" lon="-2.3388751131"><ele>301.03</ele><time>2014-10-22T11:12:06Z</time></trkpt><trkpt lat="52.0827025641" lon="-2.3388645519"><ele>300.07</ele><time>2014-10-22T11:12:17Z</time></trkpt><trkpt lat="52.0826505125" lon="-2.3388604447"><ele>298.63</ele><time>2014-10-22T11:12:21Z</time></trkpt><trkpt lat="52.0825560484" lon="-2.3388533201"><ele>297.67</ele><time>2014-10-22T11:12:28Z</time></trkpt><trkpt lat="52.0823854767" lon="-2.3388471175"><ele>297.18</ele><time>2014-10-22T11:12:41Z</time></trkpt><trkpt lat="52.0822293218" lon="-2.3388692457"><ele>297.67</ele><time>2014-10-22T11:12:55Z</time></trkpt><trkpt lat="52.0820963010" lon="-2.3388800584"><ele>298.63</ele><time>2014-10-22T11:13:08Z</time></trkpt><trkpt lat="52.0819654595" lon="-2.3388660606"><ele>298.63</ele><time>2014-10-22T11:13:21Z</time></trkpt><trkpt lat="52.0818883460" lon="-2.3388683237"><ele>298.63</ele><time>2014-10-22T11:13:28Z</time></trkpt><trkpt lat="52.0818020962" lon="-2.3388693295"><ele>299.11</ele><time>2014-10-22T11:13:36Z</time></trkpt><trkpt lat="52.0816701651" lon="-2.3388974927"><ele>299.59</ele><time>2014-10-22T11:13:52Z</time></trkpt><trkpt lat="52.0815394074" lon="-2.3389104009"><ele>300.55</ele><time>2014-10-22T11:14:05Z</time></trkpt><trkpt lat="52.0815239009" lon="-2.3389210459"><ele>301.03</ele><time>2014-10-22T11:14:07Z</time></trkpt><trkpt lat="52.0814016089" lon="-2.3389432579"><ele>302.47</ele><time>2014-10-22T11:14:21Z</time></trkpt><trkpt lat="52.0812786464" lon="-2.3389676493"><ele>303.91</ele><time>2014-10-22T11:14:34Z</time></trkpt><trkpt lat="52.0812034607" lon="-2.3389738519"><ele>304.39</ele><time>2014-10-22T11:14:42Z</time></trkpt><trkpt lat="52.0811650716" lon="-2.3389741033"><ele>304.39</ele><time>2014-10-22T11:14:45Z</time></trkpt><trkpt lat="52.0810339786" lon="-2.3390033562"><ele>305.84</ele><time>2014-10-22T11:14:57Z</time></trkpt><trkpt lat="52.0809110161" lon="-2.3390099779"><ele>307.28</ele><time>2014-10-22T11:15:10Z</time></trkpt><trkpt lat="52.0808914024" lon="-2.3390196171"><ele>307.28</ele><time>2014-10-22T11:15:12Z</time></trkpt><trkpt lat="52.0808423683" lon="-2.3390409071"><ele>307.28</ele><time>2014-10-22T11:15:17Z</time></trkpt><trkpt lat="52.0807915740" lon="-2.3390706629"><ele>307.76</ele><time>2014-10-22T11:15:23Z</time></trkpt><trkpt lat="52.0806723833" lon="-2.3391076270"><ele>309.68</ele><time>2014-10-22T11:15:37Z</time></trkpt><trkpt lat="52.0805433020" lon="-2.3391766939"><ele>309.20</ele><time>2014-10-22T11:15:52Z</time></trkpt><trkpt lat="52.0804496761" lon="-2.3392116465"><ele>310.16</ele><time>2014-10-22T11:16:01Z</time></trkpt><trkpt lat="52.0803623367" lon="-2.3392790370"><ele>309.68</ele><time>2014-10-22T11:16:15Z</time></trkpt><trkpt lat="52.0802637655" lon="-2.3393229581"><ele>311.12</ele><time>2014-10-22T11:16:30Z</time></trkpt><trkpt lat="52.0802099537" lon="-2.3393468466"><ele>311.12</ele><time>2014-10-22T11:16:36Z</time></trkpt><trkpt lat="52.0800740831" lon="-2.3394060228"><ele>311.60</ele><time>2014-10-22T11:16:50Z</time></trkpt><trkpt lat="52.0800036751" lon="-2.3394373711"><ele>311.60</ele><time>2014-10-22T11:16:57Z</time></trkpt><trkpt lat="52.0799113065" lon="-2.3394967150"><ele>311.12</ele><time>2014-10-22T11:17:06Z</time></trkpt><trkpt lat="52.0798928663" lon="-2.3395081982"><ele>312.09</ele><time>2014-10-22T11:17:08Z</time></trkpt><trkpt lat="52.0797848236" lon="-2.3395795282"><ele>311.60</ele><time>2014-10-22T11:17:20Z</time></trkpt><trkpt lat="52.0796632860" lon="-2.3396749143"><ele>312.09</ele><time>2014-10-22T11:17:34Z</time></trkpt><trkpt lat="52.0795642957" lon="-2.3397951107"><ele>313.05</ele><time>2014-10-22T11:17:48Z</time></trkpt><trkpt lat="52.0794531517" lon="-2.3399194144"><ele>313.53</ele><time>2014-10-22T11:18:02Z</time></trkpt><trkpt lat="52.0794337895" lon="-2.3399424646"><ele>313.53</ele><time>2014-10-22T11:18:04Z</time></trkpt><trkpt lat="52.0793575980" lon="-2.3401422892"><ele>314.49</ele><time>2014-10-22T11:18:20Z</time></trkpt><trkpt lat="52.0793058816" lon="-2.3403052334"><ele>315.93</ele><time>2014-10-22T11:18:34Z</time></trkpt><trkpt lat="52.0792322047" lon="-2.3404720332"><ele>316.41</ele><time>2014-10-22T11:18:50Z</time></trkpt><trkpt lat="52.0791565161" lon="-2.3405615520"><ele>314.97</ele><time>2014-10-22T11:19:04Z</time></trkpt><trkpt lat="52.0791174565" lon="-2.3405926488"><ele>315.93</ele><time>2014-10-22T11:19:29Z</time></trkpt><trkpt lat="52.0790266804" lon="-2.3407255858"><ele>314.97</ele><time>2014-10-22T11:19:42Z</time></trkpt><trkpt lat="52.0790148620" lon="-2.3407531623"><ele>315.45</ele><time>2014-10-22T11:19:44Z</time></trkpt><trkpt lat="52.0789891295" lon="-2.3407849297"><ele>315.45</ele><time>2014-10-22T11:19:47Z</time></trkpt><trkpt lat="52.0789721143" lon="-2.3408099916"><ele>315.93</ele><time>2014-10-22T11:19:49Z</time></trkpt><trkpt lat="52.0788686816" lon="-2.3409230635"><ele>314.97</ele><time>2014-10-22T11:20:01Z</time></trkpt><trkpt lat="52.0788463019" lon="-2.3409587704"><ele>314.97</ele><time>2014-10-22T11:20:04Z</time></trkpt><trkpt lat="52.0787115209" lon="-2.3410768714"><ele>314.49</ele><time>2014-10-22T11:20:20Z</time></trkpt><trkpt lat="52.0785945095" lon="-2.3411483690"><ele>314.49</ele><time>2014-10-22T11:20:34Z</time></trkpt><trkpt lat="52.0784930047" lon="-2.3412044439"><ele>314.49</ele><time>2014-10-22T11:20:48Z</time></trkpt><trkpt lat="52.0783883985" lon="-2.3412585910"><ele>314.97</ele><time>2014-10-22T11:20:58Z</time></trkpt><trkpt lat="52.0783288870" lon="-2.3413206171"><ele>314.97</ele><time>2014-10-22T11:21:02Z</time></trkpt><trkpt lat="52.0782434754" lon="-2.3413683940"><ele>314.49</ele><time>2014-10-22T11:21:10Z</time></trkpt><trkpt lat="52.0781526994" lon="-2.3414121475"><ele>314.49</ele><time>2014-10-22T11:21:23Z</time></trkpt><trkpt lat="52.0780144818" lon="-2.3414693121"><ele>314.49</ele><time>2014-10-22T11:21:36Z</time></trkpt><trkpt lat="52.0778742526" lon="-2.3414590862"><ele>314.01</ele><time>2014-10-22T11:21:51Z</time></trkpt><trkpt lat="52.0777794532" lon="-2.3414553143"><ele>314.01</ele><time>2014-10-22T11:22:00Z</time></trkpt><trkpt lat="52.0777023397" lon="-2.3414624389"><ele>313.53</ele><time>2014-10-22T11:22:06Z</time></trkpt><trkpt lat="52.0776353683" lon="-2.3414704017"><ele>313.05</ele><time>2014-10-22T11:22:12Z</time></trkpt><trkpt lat="52.0774960611" lon="-2.3414897639"><ele>313.05</ele><time>2014-10-22T11:22:24Z</time></trkpt><trkpt lat="52.0773672312" lon="-2.3414978106"><ele>313.05</ele><time>2014-10-22T11:22:36Z</time></trkpt><trkpt lat="52.0772356354" lon="-2.3414963856"><ele>312.57</ele><time>2014-10-22T11:22:49Z</time></trkpt><trkpt lat="52.0772181172" lon="-2.3414974753"><ele>312.57</ele><time>2014-10-22T11:22:51Z</time></trkpt><trkpt lat="52.0771748666" lon="-2.3414994869"><ele>312.09</ele><time>2014-10-22T11:22:56Z</time></trkpt><trkpt lat="52.0770117547" lon="-2.3414739221"><ele>312.09</ele><time>2014-10-22T11:23:12Z</time></trkpt><trkpt lat="52.0769731142" lon="-2.3414746765"><ele>312.57</ele><time>2014-10-22T11:23:17Z</time></trkpt><trkpt lat="52.0769469626" lon="-2.3414712399"><ele>312.09</ele><time>2014-10-22T11:23:20Z</time></trkpt><trkpt lat="52.0768040512" lon="-2.3414627742"><ele>312.57</ele><time>2014-10-22T11:23:35Z</time></trkpt><trkpt lat="52.0767801628" lon="-2.3414595053"><ele>312.09</ele><time>2014-10-22T11:23:38Z</time></trkpt><trkpt lat="52.0766521711" lon="-2.3414417356"><ele>312.57</ele><time>2014-10-22T11:23:52Z</time></trkpt><trkpt lat="52.0765097626" lon="-2.3414232954"><ele>313.05</ele><time>2014-10-22T11:24:06Z</time></trkpt><trkpt lat="52.0765014645" lon="-2.3414201941"><ele>313.05</ele><time>2014-10-22T11:24:07Z</time></trkpt><trkpt lat="52.0764712896" lon="-2.3414142430"><ele>313.05</ele><time>2014-10-22T11:24:10Z</time></trkpt><trkpt lat="52.0764039829" lon="-2.3413846549"><ele>312.57</ele><time>2014-10-22T11:24:16Z</time></trkpt><trkpt lat="52.0763737243" lon="-2.3413721658"><ele>312.57</ele><time>2014-10-22T11:24:19Z</time></trkpt><trkpt lat="52.0762277115" lon="-2.3413160071"><ele>312.57</ele><time>2014-10-22T11:24:33Z</time></trkpt><trkpt lat="52.0760827884" lon="-2.3412383907"><ele>313.05</ele><time>2014-10-22T11:24:47Z</time></trkpt><trkpt lat="52.0759713929" lon="-2.3411629535"><ele>314.01</ele><time>2014-10-22T11:25:00Z</time></trkpt><trkpt lat="52.0758668706" lon="-2.3410861753"><ele>313.05</ele><time>2014-10-22T11:25:12Z</time></trkpt><trkpt lat="52.0758259669" lon="-2.3410780448"><ele>313.53</ele><time>2014-10-22T11:25:18Z</time></trkpt><trkpt lat="52.0757730771" lon="-2.3410493787"><ele>313.05</ele><time>2014-10-22T11:25:24Z</time></trkpt><trkpt lat="52.0756180957" lon="-2.3409704212"><ele>314.01</ele><time>2014-10-22T11:25:39Z</time></trkpt><trkpt lat="52.0754770283" lon="-2.3408932239"><ele>313.53</ele><time>2014-10-22T11:25:52Z</time></trkpt><trkpt lat="52.0753308479" lon="-2.3408332095"><ele>314.01</ele><time>2014-10-22T11:26:06Z</time></trkpt><trkpt lat="52.0751784649" lon="-2.3407531623"><ele>315.45</ele><time>2014-10-22T11:26:21Z</time></trkpt><trkpt lat="52.0750473719" lon="-2.3406609613"><ele>314.49</ele><time>2014-10-22T11:26:34Z</time></trkpt><trkpt lat="52.0749097411" lon="-2.3405941576"><ele>313.05</ele><time>2014-10-22T11:26:48Z</time></trkpt><trkpt lat="52.0748210605" lon="-2.3405562714"><ele>313.53</ele><time>2014-10-22T11:26:57Z</time></trkpt><trkpt lat="52.0748303644" lon="-2.3406047188"><ele>311.60</ele><time>2014-10-22T11:27:02Z</time></trkpt><trkpt lat="52.0748381596" lon="-2.3406102508"><ele>309.20</ele><time>2014-10-22T11:27:08Z</time></trkpt><trkpt lat="52.0748405904" lon="-2.3406082392"><ele>310.64</ele><time>2014-10-22T11:27:12Z</time></trkpt><trkpt lat="52.0748620480" lon="-2.3406251706"><ele>309.68</ele><time>2014-10-22T11:27:15Z</time></trkpt><trkpt lat="52.0749265049" lon="-2.3407182936"><ele>307.76</ele><time>2014-10-22T11:27:29Z</time></trkpt><trkpt lat="52.0749358926" lon="-2.3407336324"><ele>307.76</ele><time>2014-10-22T11:27:30Z</time></trkpt><trkpt lat="52.0750098210" lon="-2.3408539966"><ele>306.32</ele><time>2014-10-22T11:27:39Z</time></trkpt><trkpt lat="52.0750823244" lon="-2.3409562558"><ele>304.88</ele><time>2014-10-22T11:27:48Z</time></trkpt><trkpt lat="52.0750985015" lon="-2.3410018533"><ele>303.91</ele><time>2014-10-22T11:27:51Z</time></trkpt><trkpt lat="52.0751661435" lon="-2.3411049508"><ele>301.51</ele><time>2014-10-22T11:28:01Z</time></trkpt><trkpt lat="52.0752081368" lon="-2.3411542363"><ele>301.03</ele><time>2014-10-22T11:28:14Z</time></trkpt><trkpt lat="52.0752345398" lon="-2.3411684018"><ele>301.03</ele><time>2014-10-22T11:28:17Z</time></trkpt><trkpt lat="52.0754030161" lon="-2.3413089663"><ele>298.63</ele><time>2014-10-22T11:28:33Z</time></trkpt><trkpt lat="52.0755539741" lon="-2.3414594214"><ele>296.70</ele><time>2014-10-22T11:28:49Z</time></trkpt><trkpt lat="52.0755792875" lon="-2.3415728286"><ele>293.34</ele><time>2014-10-22T11:29:02Z</time></trkpt><trkpt lat="52.0755206142" lon="-2.3415849824"><ele>291.42</ele><time>2014-10-22T11:29:09Z</time></trkpt><trkpt lat="52.0754235517" lon="-2.3416206893"><ele>288.53</ele><time>2014-10-22T11:29:22Z</time></trkpt><trkpt lat="52.0754130743" lon="-2.3416429851"><ele>287.57</ele><time>2014-10-22T11:29:35Z</time></trkpt><trkpt lat="52.0754125714" lon="-2.3416604195"><ele>287.09</ele><time>2014-10-22T11:29:48Z</time></trkpt><trkpt lat="52.0754987374" lon="-2.3417527881"><ele>284.69</ele><time>2014-10-22T11:30:01Z</time></trkpt><trkpt lat="52.0755492803" lon="-2.3418005649"><ele>283.25</ele><time>2014-10-22T11:30:12Z</time></trkpt><trkpt lat="52.0756250527" lon="-2.3419557977"><ele>280.84</ele><time>2014-10-22T11:30:23Z</time></trkpt><trkpt lat="52.0756854862" lon="-2.3420219310"><ele>278.92</ele><time>2014-10-22T11:30:40Z</time></trkpt><trkpt lat="52.0757880807" lon="-2.3421503417"><ele>275.56</ele><time>2014-10-22T11:30:54Z</time></trkpt><trkpt lat="52.0758807845" lon="-2.3423372582"><ele>272.19</ele><time>2014-10-22T11:31:07Z</time></trkpt><trkpt lat="52.0759358536" lon="-2.3424411099"><ele>271.71</ele><time>2014-10-22T11:31:18Z</time></trkpt><trkpt lat="52.0760076866" lon="-2.3425428662"><ele>269.79</ele><time>2014-10-22T11:31:28Z</time></trkpt><trkpt lat="52.0760422200" lon="-2.3425797466"><ele>269.31</ele><time>2014-10-22T11:31:32Z</time></trkpt><trkpt lat="52.0760811958" lon="-2.3426748812"><ele>267.38</ele><time>2014-10-22T11:31:39Z</time></trkpt><trkpt lat="52.0761133824" lon="-2.3427246697"><ele>266.90</ele><time>2014-10-22T11:31:43Z</time></trkpt><trkpt lat="52.0761721395" lon="-2.3429465387"><ele>264.98</ele><time>2014-10-22T11:32:00Z</time></trkpt><trkpt lat="52.0761713851" lon="-2.3429615423"><ele>264.50</ele><time>2014-10-22T11:32:10Z</time></trkpt><trkpt lat="52.0761609077" lon="-2.3430606164"><ele>264.02</ele><time>2014-10-22T11:32:16Z</time></trkpt><trkpt lat="52.0761620812" lon="-2.3431421723"><ele>264.02</ele><time>2014-10-22T11:32:21Z</time></trkpt><trkpt lat="52.0761925075" lon="-2.3431990016"><ele>264.02</ele><time>2014-10-22T11:32:25Z</time></trkpt><trkpt lat="52.0763383526" lon="-2.3433637060"><ele>261.62</ele><time>2014-10-22T11:32:41Z</time></trkpt><trkpt lat="52.0764239319" lon="-2.3435066175"><ele>258.73</ele><time>2014-10-22T11:32:53Z</time></trkpt><trkpt lat="52.0764378458" lon="-2.3435704876"><ele>258.25</ele><time>2014-10-22T11:32:56Z</time></trkpt><trkpt lat="52.0763513446" lon="-2.3437334318"><ele>256.33</ele><time>2014-10-22T11:33:09Z</time></trkpt><trkpt lat="52.0763265342" lon="-2.3437155783"><ele>257.29</ele><time>2014-10-22T11:33:24Z</time></trkpt><trkpt lat="52.0763230138" lon="-2.3436951265"><ele>256.81</ele><time>2014-10-22T11:33:40Z</time></trkpt></trkseg></trk></gpx>